This is the latest recevied weather packets stored in our database for station/object 7L2IWN-13. If no packets are shown the sender has not sent any weather packets the latest 1 day(s).
| Time | Temp. | Humidity | Pressure | Rain* | Wind** | Luminosity | Snow |
|---|---|---|---|---|---|---|---|
| 1778041067 | 18.89° C | 65% | 1018.5 hPa | 0 mm | - | - | - |
| 1778040345 | 18.89° C | 64% | 1018.3 hPa | 0 mm | - | - | - |
| 1778039626 | 18.89° C | 64% | 1018.6 hPa | 0 mm | - | - | - |
| 1778038905 | 20° C | 62% | 1018.8 hPa | 0 mm | - | - | - |
| 1778037465 | 18.33° C | 64% | 1018.7 hPa | 0 mm | - | - | - |
| 1778036745 | 18.33° C | 64% | 1018.8 hPa | 0 mm | - | - | - |
| 1778035305 | 17.78° C | 65% | 1019.1 hPa | 0 mm | - | - | - |
| 1778033865 | 17.78° C | 65% | 1019.6 hPa | 0 mm | - | - | - |
| 1778032425 | 17.22° C | 65% | 1019.9 hPa | 0 mm | - | - | - |
| 1778031704 | 17.22° C | 66% | 1020.2 hPa | 0 mm | - | - | - |
| 1778030984 | 16.67° C | 67% | 1020.3 hPa | 0 mm | - | - | - |
| 1778030265 | 17.22° C | 65% | 1020.5 hPa | 0 mm | - | - | - |
| 1778029547 | 17.22° C | 65% | 1020.4 hPa | 0 mm | - | - | - |
| 1778028826 | 17.78° C | 63% | 1020.6 hPa | 0 mm | - | - | - |
| 1778028107 | 16.67° C | 64% | 1020.7 hPa | 0 mm | - | - | - |
| 1778027387 | 16.67° C | 65% | 1020.8 hPa | 0 mm | - | - | - |
| 1778026665 | 15° C | 72% | 1020.7 hPa | 0 mm | - | - | - |
| 1778025226 | 14.44° C | 73% | 1021.1 hPa | 0 mm | - | - | - |
| 1778023066 | 13.33° C | 80% | 1021.5 hPa | 0 mm | - | - | - |
| 1778020907 | 12.22° C | 83% | 1021.7 hPa | 0 mm | - | - | - |
| 1778017308 | 10° C | 92% | 1021.5 hPa | 0 mm | - | - | - |
| 1778008667 | 8.89° C | 95% | 1021.1 hPa | 0 mm | - | - | - |
| 1778006507 | 8.89° C | 93% | 1020.9 hPa | 0 mm | - | - | - |
| 1778005067 | 9.44° C | 91% | 1020.9 hPa | 0 mm | - | - | - |
* Rain latest hour (hover to see other rain measurements)
** Current wind speed in m/s (hover to see current wind gust speed)